createdAt,value
2019-03-23T00:01:55.088Z,10.40
2019-03-23T00:03:57.293Z,10.40
2019-03-23T00:05:59.528Z,10.50
2019-03-23T00:08:01.779Z,10.50
2019-03-23T00:10:04.771Z,10.40
2019-03-23T00:12:06.985Z,10.40
2019-03-23T00:14:09.201Z,10.30
2019-03-23T00:16:11.425Z,10.20
2019-03-23T00:18:13.651Z,10.10
2019-03-23T00:20:15.872Z,10.10
2019-03-23T00:22:18.085Z,10.00
2019-03-23T00:24:20.309Z,10.00
2019-03-23T00:26:22.525Z,9.90
2019-03-23T00:28:24.972Z,9.70
2019-03-23T00:30:27.173Z,9.70
2019-03-23T00:32:29.380Z,9.70
2019-03-23T00:34:31.596Z,9.70
2019-03-23T00:36:41.229Z,9.70
2019-03-23T00:38:37.924Z,9.70
2019-03-23T00:40:40.128Z,9.70
2019-03-23T00:42:42.364Z,9.70
2019-03-23T00:44:44.658Z,9.60
2019-03-23T00:46:46.869Z,9.60
2019-03-23T00:48:49.401Z,9.60
2019-03-23T00:50:51.600Z,9.50
2019-03-23T00:52:54.102Z,9.50
2019-03-23T00:54:56.309Z,9.50
2019-03-23T00:56:58.552Z,9.40
2019-03-23T00:59:00.758Z,9.40
2019-03-23T01:01:02.987Z,9.40
2019-03-23T01:03:05.298Z,9.40
2019-03-23T01:05:07.635Z,9.40
2019-03-23T01:07:10.084Z,9.40
2019-03-23T01:09:12.312Z,9.40
2019-03-23T01:11:14.520Z,9.30
2019-03-23T01:13:16.724Z,9.10
2019-03-23T01:15:19.034Z,9.10
2019-03-23T01:17:21.255Z,9.00
2019-03-23T01:19:23.471Z,9.00
2019-03-23T01:21:25.680Z,9.00
2019-03-23T01:23:27.904Z,8.90
2019-03-23T01:25:30.124Z,8.90
2019-03-23T01:27:32.348Z,8.80
2019-03-23T01:29:34.807Z,8.80
2019-03-23T01:31:37.016Z,8.80
2019-03-23T01:33:39.235Z,8.90
2019-03-23T01:35:41.446Z,8.80
2019-03-23T01:37:43.653Z,8.80
2019-03-23T01:39:45.853Z,8.70
2019-03-23T01:41:48.069Z,8.70
2019-03-23T01:43:50.563Z,8.70
2019-03-23T01:45:52.880Z,8.60
2019-03-23T01:47:55.117Z,8.60
2019-03-23T01:49:57.319Z,8.60
2019-03-23T01:51:59.551Z,8.50
2019-03-23T01:54:01.773Z,8.50
2019-03-23T01:56:03.973Z,8.50
2019-03-23T01:58:06.207Z,8.40
2019-03-23T02:00:08.524Z,8.50
2019-03-23T02:02:10.732Z,8.50
2019-03-23T02:04:12.937Z,8.40
2019-03-23T02:06:15.519Z,8.50
2019-03-23T02:08:17.851Z,8.50
2019-03-23T02:10:20.062Z,8.50
2019-03-23T02:12:22.272Z,8.50
2019-03-23T02:14:24.501Z,8.50
2019-03-23T02:16:26.700Z,8.50
2019-03-23T02:18:28.923Z,8.50
2019-03-23T02:20:31.125Z,8.40
2019-03-23T02:22:33.364Z,8.40
2019-03-23T02:24:35.926Z,8.40
2019-03-23T02:26:38.144Z,8.40
2019-03-23T02:28:40.351Z,8.30
2019-03-23T02:30:42.560Z,8.20
2019-03-23T02:32:44.792Z,8.20
2019-03-23T02:34:47.013Z,8.00
2019-03-23T02:36:49.247Z,7.90
2019-03-23T02:38:51.789Z,7.90
2019-03-23T02:40:54.001Z,7.80
2019-03-23T02:42:56.786Z,7.80
2019-03-23T02:44:58.986Z,7.80
2019-03-23T02:47:01.208Z,7.70
2019-03-23T02:49:03.412Z,7.80
2019-03-23T02:51:05.622Z,7.80
2019-03-23T02:53:07.851Z,7.80
2019-03-23T02:55:10.586Z,7.80
2019-03-23T02:57:12.805Z,7.80
2019-03-23T02:59:15.019Z,7.80
2019-03-23T03:01:17.226Z,7.80
2019-03-23T03:03:19.444Z,7.80
2019-03-23T03:05:21.742Z,7.70
2019-03-23T03:07:23.967Z,7.60
2019-03-23T03:09:26.161Z,7.40
2019-03-23T03:11:28.601Z,7.50
2019-03-23T03:13:30.826Z,7.40
2019-03-23T03:15:33.039Z,7.40
2019-03-23T03:17:35.262Z,7.30
2019-03-23T03:19:37.462Z,7.40
2019-03-23T03:21:39.672Z,7.30
2019-03-23T03:23:41.878Z,7.40
2019-03-23T03:25:44.086Z,7.50
2019-03-23T03:27:46.301Z,7.60
2019-03-23T03:29:48.508Z,7.70
2019-03-23T03:31:50.725Z,7.80
2019-03-23T03:33:52.939Z,7.90
2019-03-23T03:35:55.150Z,7.90
2019-03-23T03:37:57.541Z,8.00
2019-03-23T03:39:59.886Z,8.00
2019-03-23T03:42:02.112Z,8.10
2019-03-23T03:44:04.316Z,8.10
2019-03-23T03:46:06.515Z,8.10
2019-03-23T03:48:08.735Z,8.10
2019-03-23T03:50:11.373Z,8.10
2019-03-23T03:52:13.605Z,8.20
2019-03-23T03:54:15.807Z,8.20
2019-03-23T03:56:18.014Z,8.20
2019-03-23T03:58:20.238Z,8.10
2019-03-23T04:00:22.446Z,8.10
2019-03-23T04:02:24.976Z,8.10
2019-03-23T04:04:27.180Z,8.10
2019-03-23T04:06:29.389Z,8.00
2019-03-23T04:08:31.611Z,8.00
2019-03-23T04:10:33.815Z,8.00
2019-03-23T04:12:36.129Z,8.00
2019-03-23T04:14:38.358Z,8.00
2019-03-23T04:16:40.889Z,8.00
2019-03-23T04:18:43.101Z,7.90
2019-03-23T04:20:45.315Z,7.90
2019-03-23T04:22:47.548Z,7.90
2019-03-23T04:24:50.108Z,7.80
2019-03-23T04:26:52.589Z,7.80
2019-03-23T04:28:54.803Z,7.80
2019-03-23T04:30:57.007Z,7.80
2019-03-23T04:32:59.229Z,7.80
2019-03-23T04:35:01.464Z,7.80
2019-03-23T04:37:03.686Z,7.90
2019-03-23T04:39:06.270Z,7.90
2019-03-23T04:41:08.471Z,8.00
2019-03-23T04:43:10.914Z,8.00
2019-03-23T04:45:13.368Z,8.10
2019-03-23T04:47:15.575Z,8.10
2019-03-23T04:49:17.772Z,8.10
2019-03-23T04:51:20.273Z,8.20
2019-03-23T04:53:22.478Z,8.20
2019-03-23T04:55:24.696Z,8.20
2019-03-23T04:57:26.925Z,8.10
2019-03-23T04:59:29.128Z,8.20
2019-03-23T05:01:31.332Z,8.00
2019-03-23T05:03:33.536Z,8.00
2019-03-23T05:05:35.768Z,7.90
2019-03-23T05:07:37.976Z,7.90
2019-03-23T05:09:40.181Z,7.80
2019-03-23T05:11:42.368Z,7.70
2019-03-23T05:13:44.580Z,7.70
2019-03-23T05:15:46.783Z,7.70
2019-03-23T05:17:48.997Z,7.60
2019-03-23T05:19:51.197Z,7.60
2019-03-23T05:21:53.404Z,7.60
2019-03-23T05:23:55.621Z,7.60
2019-03-23T05:25:57.825Z,7.60
2019-03-23T05:28:00.043Z,7.60
2019-03-23T05:30:02.439Z,7.60
2019-03-23T05:32:04.648Z,7.60
2019-03-23T05:34:06.862Z,7.60
2019-03-23T05:36:09.071Z,7.70
2019-03-23T05:38:11.282Z,7.70
2019-03-23T05:40:13.488Z,7.70
2019-03-23T05:42:15.690Z,7.70
2019-03-23T05:44:17.906Z,7.80
2019-03-23T05:46:20.105Z,7.80
2019-03-23T05:48:22.325Z,7.80
2019-03-23T05:50:24.540Z,7.80
2019-03-23T05:52:26.760Z,7.80
2019-03-23T05:54:28.961Z,7.80
2019-03-23T05:56:31.165Z,7.90
2019-03-23T05:58:33.389Z,7.90
2019-03-23T06:00:35.605Z,7.90
2019-03-23T06:02:37.800Z,7.90
2019-03-23T06:04:40.010Z,7.90
2019-03-23T06:06:42.221Z,7.90
2019-03-23T06:08:54.275Z,7.90
2019-03-23T06:10:48.857Z,7.90
2019-03-23T06:12:51.065Z,7.90
2019-03-23T06:14:53.269Z,7.90
2019-03-23T06:16:55.482Z,8.00
2019-03-23T06:18:57.697Z,8.00
2019-03-23T06:21:00.189Z,8.00
2019-03-23T06:23:02.404Z,8.00
2019-03-23T06:25:04.817Z,8.00
2019-03-23T06:27:07.013Z,8.00
2019-03-23T06:29:09.224Z,8.00
2019-03-23T06:31:11.552Z,7.90
2019-03-23T06:33:13.766Z,7.90
2019-03-23T06:35:16.398Z,7.80
2019-03-23T06:37:18.611Z,7.80
2019-03-23T06:39:20.830Z,7.80
2019-03-23T06:41:23.048Z,7.80
2019-03-23T06:43:25.265Z,7.70
2019-03-23T06:45:27.475Z,7.60
2019-03-23T06:47:29.696Z,7.60
2019-03-23T06:49:31.921Z,7.50
2019-03-23T06:51:34.139Z,7.50
2019-03-23T06:53:36.616Z,7.40
2019-03-23T06:55:39.120Z,7.40
2019-03-23T06:57:41.339Z,7.30
2019-03-23T06:59:43.563Z,7.20
2019-03-23T07:01:45.776Z,7.20
2019-03-23T07:03:47.994Z,7.20
2019-03-23T07:05:50.216Z,7.30
2019-03-23T07:07:52.419Z,7.30
2019-03-23T07:09:54.730Z,7.30
2019-03-23T07:11:56.940Z,7.30
2019-03-23T07:13:59.154Z,7.30
2019-03-23T07:16:01.369Z,7.40
2019-03-23T07:18:03.580Z,7.40
2019-03-23T07:20:07.148Z,7.40
2019-03-23T07:22:09.364Z,7.40
2019-03-23T07:24:11.568Z,7.40
2019-03-23T07:26:13.793Z,7.40
2019-03-23T07:28:16.038Z,7.40
2019-03-23T07:30:18.345Z,7.50
2019-03-23T07:32:20.558Z,7.50
2019-03-23T07:34:23.131Z,7.50
2019-03-23T07:36:25.329Z,7.50
2019-03-23T07:38:27.549Z,7.50
2019-03-23T07:40:29.775Z,7.50
2019-03-23T07:42:31.979Z,7.50
2019-03-23T07:44:34.190Z,7.50
2019-03-23T07:46:36.376Z,7.60
2019-03-23T07:48:38.589Z,7.60
2019-03-23T07:50:40.801Z,7.60
2019-03-23T07:52:42.992Z,7.60
2019-03-23T07:54:45.213Z,7.60
2019-03-23T07:56:47.415Z,7.70
2019-03-23T07:58:49.632Z,7.80
2019-03-23T08:00:51.837Z,7.90
2019-03-23T08:02:54.050Z,7.90
2019-03-23T08:04:56.316Z,7.90
2019-03-23T08:06:58.525Z,7.90
2019-03-23T08:09:00.746Z,7.80
2019-03-23T08:11:02.965Z,7.80
2019-03-23T08:13:05.174Z,7.80
2019-03-23T08:15:07.819Z,7.80
2019-03-23T08:17:10.040Z,7.80
2019-03-23T08:19:12.582Z,7.80
2019-03-23T08:21:15.122Z,7.90
2019-03-23T08:23:17.326Z,8.00
2019-03-23T08:25:19.524Z,8.00
2019-03-23T08:27:21.737Z,8.10
2019-03-23T08:29:23.963Z,8.10
2019-03-23T08:31:26.164Z,8.10
2019-03-23T08:33:28.374Z,8.00
2019-03-23T08:35:30.585Z,8.10
2019-03-23T08:41:11.158Z,8.10
2019-03-23T08:43:13.365Z,8.10
2019-03-23T08:45:15.585Z,8.10
2019-03-23T08:47:17.802Z,8.20
2019-03-23T08:49:20.113Z,8.20
2019-03-23T08:51:22.598Z,8.20
2019-03-23T08:53:24.833Z,8.20
2019-03-23T08:55:27.129Z,8.20
2019-03-23T08:57:29.390Z,8.20
2019-03-23T08:59:31.610Z,8.10
2019-03-23T09:01:33.826Z,8.10
2019-03-23T09:03:36.046Z,8.10
2019-03-23T09:05:38.562Z,8.20
2019-03-23T09:07:40.765Z,8.20
2019-03-23T09:09:42.984Z,8.20
2019-03-23T09:11:45.462Z,8.20
2019-03-23T09:13:47.661Z,8.20
2019-03-23T09:15:49.978Z,8.20
2019-03-23T09:17:52.183Z,8.30
2019-03-23T09:19:54.481Z,8.20
2019-03-23T09:21:56.693Z,8.20
2019-03-23T09:23:59.158Z,8.20
2019-03-23T09:26:01.382Z,8.20
2019-03-23T09:28:03.588Z,8.30
2019-03-23T09:30:07.562Z,8.30
2019-03-23T09:32:09.761Z,8.40
2019-03-23T09:34:12.250Z,8.40
2019-03-23T09:36:14.466Z,8.50
2019-03-23T09:38:16.663Z,8.50
2019-03-23T09:40:19.673Z,8.50
2019-03-23T09:42:21.877Z,8.60
2019-03-23T09:44:24.182Z,8.70
2019-03-23T09:46:26.399Z,8.80
2019-03-23T09:48:28.605Z,8.90
2019-03-23T09:50:30.827Z,8.80
2019-03-23T09:52:33.033Z,8.80
2019-03-23T09:54:35.233Z,8.80
2019-03-23T09:56:37.726Z,8.70
2019-03-23T09:58:39.942Z,8.80
2019-03-23T10:00:42.166Z,8.80
2019-03-23T10:02:44.381Z,8.80
2019-03-23T10:04:46.689Z,8.90
2019-03-23T10:06:49.012Z,9.00
2019-03-23T10:08:51.217Z,9.00
2019-03-23T10:10:53.437Z,9.00
2019-03-23T10:12:55.637Z,9.00
2019-03-23T10:14:57.841Z,9.00
2019-03-23T10:17:00.041Z,9.00
2019-03-23T10:19:02.250Z,8.80
2019-03-23T10:21:04.462Z,9.00
2019-03-23T10:23:06.669Z,9.00
2019-03-23T10:25:08.880Z,8.90
2019-03-23T10:27:11.100Z,9.10
2019-03-23T10:29:13.706Z,9.20
2019-03-23T10:31:16.223Z,9.30
2019-03-23T10:33:18.425Z,9.40
2019-03-23T10:35:20.647Z,9.60
2019-03-23T10:37:22.854Z,9.60
2019-03-23T10:39:25.058Z,9.60
2019-03-23T10:41:27.276Z,9.70
2019-03-23T10:43:29.794Z,9.60
2019-03-23T10:45:32.016Z,9.70
2019-03-23T10:47:34.349Z,9.70
2019-03-23T10:49:36.726Z,9.80
2019-03-23T10:51:39.309Z,9.70
2019-03-23T10:53:41.573Z,9.60
2019-03-23T10:55:44.055Z,9.70
2019-03-23T10:57:46.273Z,9.80
2019-03-23T10:59:48.486Z,9.80
2019-03-23T11:01:50.733Z,9.90
2019-03-23T11:03:52.938Z,9.90
2019-03-23T11:05:55.154Z,9.90
2019-03-23T11:07:57.363Z,10.00
2019-03-23T11:09:59.562Z,10.00
2019-03-23T11:12:01.784Z,10.00
2019-03-23T11:14:03.994Z,10.00
2019-03-23T11:16:06.217Z,10.10
2019-03-23T11:18:08.416Z,10.20
2019-03-23T11:20:10.657Z,10.10
2019-03-23T11:22:12.873Z,10.20
2019-03-23T11:24:15.073Z,10.30
2019-03-23T11:26:17.288Z,10.40
2019-03-23T11:28:19.481Z,10.50
2019-03-23T11:30:21.682Z,10.50
2019-03-23T11:32:23.903Z,10.60
2019-03-23T11:34:26.390Z,10.60
2019-03-23T11:36:28.606Z,10.70
2019-03-23T11:38:30.805Z,10.70
2019-03-23T11:40:33.013Z,10.60
2019-03-23T11:42:35.237Z,10.80
2019-03-23T11:44:37.449Z,10.80
2019-03-23T11:46:39.665Z,10.80
2019-03-23T11:48:41.891Z,10.70
2019-03-23T11:50:44.183Z,10.80
2019-03-23T11:52:47.174Z,10.80
2019-03-23T11:54:49.501Z,11.00
2019-03-23T11:56:51.722Z,11.00
2019-03-23T11:58:54.127Z,11.10
2019-03-23T12:00:56.545Z,10.80
2019-03-23T12:02:58.761Z,10.70
2019-03-23T12:05:00.970Z,10.90
2019-03-23T12:07:03.198Z,10.80
2019-03-23T12:09:06.815Z,10.80
2019-03-23T12:11:09.022Z,10.90
2019-03-23T12:13:11.239Z,10.80
2019-03-23T12:15:13.463Z,11.00
2019-03-23T12:17:15.677Z,11.00
2019-03-23T12:19:17.885Z,11.10
2019-03-23T12:21:20.090Z,11.30
2019-03-23T12:23:22.309Z,11.40
2019-03-23T12:25:24.513Z,11.40
2019-03-23T12:27:26.738Z,11.50
2019-03-23T12:29:28.954Z,12.00
2019-03-23T12:31:31.434Z,12.30
2019-03-23T12:33:33.644Z,12.60
2019-03-23T12:35:35.851Z,12.60
2019-03-23T12:37:38.066Z,13.00
2019-03-23T12:39:40.304Z,13.80
2019-03-23T12:41:42.598Z,14.60
2019-03-23T12:43:44.801Z,14.60
2019-03-23T12:45:47.005Z,15.30
2019-03-23T12:47:49.222Z,15.40
2019-03-23T12:49:51.422Z,16.30
2019-03-23T12:51:53.643Z,16.40
2019-03-23T12:53:55.841Z,16.40
2019-03-23T12:55:58.049Z,16.20
2019-03-23T12:58:00.270Z,15.70
2019-03-23T13:00:02.857Z,16.00
2019-03-23T13:02:05.077Z,15.70
2019-03-23T13:04:07.590Z,15.70
2019-03-23T13:06:09.794Z,15.80
2019-03-23T13:08:12.015Z,15.50
2019-03-23T13:10:14.243Z,15.20
2019-03-23T13:12:16.462Z,15.10
2019-03-23T13:14:18.669Z,15.10
2019-03-23T13:16:20.873Z,15.00
2019-03-23T13:18:27.181Z,15.10
2019-03-23T13:20:27.321Z,14.70
2019-03-23T13:22:29.614Z,14.60
2019-03-23T13:24:31.826Z,14.50
2019-03-23T13:26:34.025Z,14.30
2019-03-23T13:28:36.243Z,14.20
2019-03-23T13:30:38.453Z,14.30
2019-03-23T13:32:40.678Z,14.20
2019-03-23T13:34:43.210Z,14.20
2019-03-23T13:36:45.702Z,14.00
2019-03-23T13:38:48.173Z,14.20
2019-03-23T13:40:50.381Z,14.30
2019-03-23T13:42:52.602Z,14.20
2019-03-23T13:44:54.809Z,14.20
2019-03-23T13:46:57.021Z,14.20
2019-03-23T13:48:59.494Z,14.20
2019-03-23T13:51:01.697Z,14.20
2019-03-23T13:53:03.934Z,14.10
2019-03-23T13:55:06.375Z,14.00
2019-03-23T13:57:08.867Z,13.70
2019-03-23T13:59:11.080Z,13.50
2019-03-23T14:01:13.531Z,13.50
2019-03-23T14:03:15.757Z,13.30
2019-03-23T14:05:17.948Z,13.20
2019-03-23T14:07:20.157Z,13.10
2019-03-23T14:09:22.386Z,13.00
2019-03-23T14:11:24.626Z,13.00
2019-03-23T14:13:27.879Z,13.00
2019-03-23T14:15:30.324Z,13.00
2019-03-23T14:17:32.537Z,13.00
2019-03-23T14:19:34.969Z,12.90
2019-03-23T14:21:37.585Z,12.90
2019-03-23T14:23:39.809Z,12.80
2019-03-23T14:25:42.257Z,12.80
2019-03-23T14:27:44.466Z,12.80
2019-03-23T14:29:46.695Z,12.70
2019-03-23T14:31:48.900Z,12.70
2019-03-23T14:33:51.118Z,12.60
2019-03-23T14:35:53.665Z,12.60
2019-03-23T14:37:55.878Z,12.60
2019-03-23T14:39:58.437Z,12.60
2019-03-23T14:42:04.819Z,12.50
2019-03-23T14:44:04.761Z,12.40
2019-03-23T14:46:06.974Z,12.30
2019-03-23T14:48:09.181Z,12.30
2019-03-23T14:50:11.401Z,12.30
2019-03-23T14:52:13.610Z,12.40
2019-03-23T14:54:15.829Z,12.30
2019-03-23T14:56:18.033Z,12.30
2019-03-23T14:58:20.273Z,12.30
2019-03-23T15:00:30.120Z,12.30
2019-03-23T15:02:32.330Z,12.30
2019-03-23T15:04:34.546Z,12.30
2019-03-23T15:06:36.750Z,12.30
2019-03-23T15:08:38.965Z,12.20
2019-03-23T15:10:41.170Z,12.20
2019-03-23T15:12:43.381Z,12.20
2019-03-23T15:14:45.942Z,12.20
2019-03-23T15:16:48.150Z,12.20
2019-03-23T15:18:50.367Z,12.20
2019-03-23T15:20:52.569Z,12.20
2019-03-23T15:22:55.022Z,12.20
2019-03-23T15:24:57.237Z,12.10
2019-03-23T15:26:59.445Z,12.10
2019-03-23T15:29:01.661Z,12.10
2019-03-23T15:31:03.866Z,12.00
2019-03-23T15:33:06.078Z,12.00
2019-03-23T15:35:08.297Z,12.00
2019-03-23T15:37:10.503Z,11.90
2019-03-23T15:39:13.038Z,11.80
2019-03-23T15:41:15.238Z,11.80
2019-03-23T15:43:17.441Z,11.80
2019-03-23T15:45:19.665Z,11.80
2019-03-23T15:47:22.197Z,11.70
2019-03-23T15:49:24.422Z,11.70
2019-03-23T15:51:26.621Z,11.60
2019-03-23T15:53:28.817Z,11.60
2019-03-23T15:55:31.038Z,11.50
2019-03-23T15:57:33.285Z,11.40
2019-03-23T15:59:35.533Z,11.40
2019-03-23T16:01:37.746Z,11.40
2019-03-23T16:03:39.948Z,11.30
2019-03-23T16:05:42.169Z,11.30
2019-03-23T16:07:44.378Z,11.30
2019-03-23T16:09:46.597Z,11.30
2019-03-23T16:11:48.906Z,11.20
2019-03-23T16:13:51.109Z,11.20
2019-03-23T16:15:53.321Z,11.10
2019-03-23T16:17:55.781Z,11.10
2019-03-23T16:19:58.198Z,11.10
2019-03-23T16:22:00.468Z,11.00
2019-03-23T16:24:02.778Z,11.00
2019-03-23T16:26:05.002Z,10.90
2019-03-23T16:28:07.209Z,10.90
2019-03-23T16:30:10.852Z,10.90
2019-03-23T16:32:13.150Z,10.90
2019-03-23T16:34:15.353Z,10.90
2019-03-23T16:36:17.568Z,10.90
2019-03-23T16:38:19.777Z,10.70
2019-03-23T16:40:21.994Z,10.70
2019-03-23T16:42:24.203Z,10.70
2019-03-23T16:44:26.405Z,10.70
2019-03-23T16:46:28.621Z,10.60
2019-03-23T16:48:30.825Z,10.60
2019-03-23T16:50:33.374Z,10.60
2019-03-23T16:52:36.542Z,10.60
2019-03-23T16:54:38.748Z,10.60
2019-03-23T16:56:40.970Z,10.60
2019-03-23T16:58:43.220Z,10.50
2019-03-23T17:00:45.507Z,10.50
2019-03-23T17:02:47.694Z,10.50
2019-03-23T17:04:49.958Z,10.60
2019-03-23T17:06:52.170Z,10.50
2019-03-23T17:08:54.378Z,10.50
2019-03-23T17:10:56.596Z,10.50
2019-03-23T17:12:58.793Z,10.50
2019-03-23T17:15:01.013Z,10.40
2019-03-23T17:17:03.217Z,10.40
2019-03-23T17:19:05.721Z,10.40
2019-03-23T17:21:07.946Z,10.40
2019-03-23T17:23:10.149Z,10.40
2019-03-23T17:25:12.374Z,10.40
2019-03-23T17:27:14.593Z,10.40
2019-03-23T17:29:16.796Z,10.40
2019-03-23T17:31:19.010Z,10.40
2019-03-23T17:33:21.463Z,10.40
2019-03-23T17:35:23.666Z,10.30
2019-03-23T17:37:25.869Z,10.30
2019-03-23T17:39:28.088Z,10.30
2019-03-23T17:41:30.503Z,10.20
2019-03-23T17:43:32.770Z,10.20
2019-03-23T17:45:35.006Z,10.20
2019-03-23T17:47:37.290Z,10.20
2019-03-23T17:49:39.497Z,10.10
2019-03-23T17:51:42.025Z,10.10
2019-03-23T17:53:44.577Z,10.10
2019-03-23T17:55:46.801Z,10.10
2019-03-23T17:57:49.025Z,10.00
2019-03-23T17:59:51.241Z,10.00
2019-03-23T18:01:53.486Z,10.00
2019-03-23T18:03:55.710Z,9.90
2019-03-23T18:05:58.453Z,9.90
2019-03-23T18:08:01.028Z,9.90
2019-03-23T18:10:04.110Z,9.90
2019-03-23T18:12:06.329Z,9.90
2019-03-23T18:14:08.530Z,9.90
2019-03-23T18:16:10.994Z,9.90
2019-03-23T18:18:13.438Z,9.90
2019-03-23T18:20:15.670Z,9.90
2019-03-23T18:22:17.901Z,9.90
2019-03-23T18:24:20.115Z,9.80
2019-03-23T18:26:22.333Z,9.80
2019-03-23T18:28:24.545Z,9.80
2019-03-23T18:30:37.868Z,9.80
2019-03-23T18:32:40.092Z,9.70
2019-03-23T18:34:42.304Z,9.70
2019-03-23T18:36:44.838Z,9.70
2019-03-23T18:38:47.049Z,9.60
2019-03-23T18:40:49.271Z,9.60
2019-03-23T18:42:51.473Z,9.50
2019-03-23T18:44:53.694Z,9.50
2019-03-23T18:46:55.913Z,9.50
2019-03-23T18:48:58.121Z,9.40
2019-03-23T18:51:00.346Z,9.30
2019-03-23T18:53:02.583Z,9.30
2019-03-23T18:55:05.232Z,9.20
2019-03-23T18:57:07.454Z,9.10
2019-03-23T18:59:09.674Z,9.10
2019-03-23T19:01:11.893Z,9.10
2019-03-23T19:03:14.101Z,9.00
2019-03-23T19:05:16.671Z,9.00
2019-03-23T19:07:18.900Z,8.90
2019-03-23T19:09:21.114Z,8.80
2019-03-23T19:11:23.325Z,8.80
2019-03-23T19:13:25.830Z,8.80
2019-03-23T19:15:28.048Z,8.70
2019-03-23T19:17:30.269Z,8.70
2019-03-23T19:19:32.838Z,8.60
2019-03-23T19:21:35.066Z,8.60
2019-03-23T19:23:37.369Z,8.60
2019-03-23T19:25:39.573Z,8.50
2019-03-23T19:27:41.807Z,8.50
2019-03-23T19:29:44.013Z,8.50
2019-03-23T19:31:46.240Z,8.50
2019-03-23T19:33:48.453Z,8.40
2019-03-23T19:35:50.665Z,8.40
2019-03-23T19:37:52.882Z,8.40
2019-03-23T19:39:55.092Z,8.40
2019-03-23T19:41:57.317Z,8.30
2019-03-23T19:43:59.530Z,8.30
2019-03-23T19:46:01.749Z,8.30
2019-03-23T19:48:03.985Z,8.30
2019-03-23T19:50:06.462Z,8.30
2019-03-23T19:52:08.681Z,8.30
2019-03-23T19:54:10.903Z,8.20
2019-03-23T19:56:13.114Z,8.20
2019-03-23T19:58:15.361Z,8.20
2019-03-23T20:00:17.565Z,8.20
2019-03-23T20:02:19.790Z,8.10
2019-03-23T20:04:22.096Z,8.10
2019-03-23T20:06:24.301Z,8.10
2019-03-23T20:08:26.825Z,8.00
2019-03-23T20:10:29.282Z,8.00
2019-03-23T20:12:31.510Z,8.00
2019-03-23T20:14:33.718Z,7.90
2019-03-23T20:16:35.928Z,7.90
2019-03-23T20:18:38.153Z,7.90
2019-03-23T20:20:40.379Z,7.80
2019-03-23T20:22:42.622Z,7.80
2019-03-23T20:24:44.833Z,7.80
2019-03-23T20:26:47.058Z,7.70
2019-03-23T20:28:49.277Z,7.70
2019-03-23T20:30:51.491Z,7.70
2019-03-23T20:32:53.966Z,7.60
2019-03-23T20:34:56.190Z,7.60
2019-03-23T20:36:59.053Z,7.60
2019-03-23T20:39:01.304Z,7.50
2019-03-23T20:41:04.128Z,7.50
2019-03-23T20:43:06.346Z,7.40
2019-03-23T20:45:09.472Z,7.40
2019-03-23T20:47:11.706Z,7.40
2019-03-23T20:49:13.934Z,7.30
2019-03-23T20:51:16.454Z,7.30
2019-03-23T20:53:18.680Z,7.30
2019-03-23T20:55:25.730Z,7.30
2019-03-23T20:57:36.879Z,7.20
2019-03-23T20:59:32.093Z,7.20
2019-03-23T21:01:34.314Z,7.20
2019-03-23T21:03:36.533Z,7.10
2019-03-23T21:05:39.010Z,7.10
2019-03-23T21:07:41.301Z,7.10
2019-03-23T21:09:43.505Z,7.10
2019-03-23T21:11:45.743Z,7.00
2019-03-23T21:13:48.289Z,7.00
2019-03-23T21:15:51.383Z,7.00
2019-03-23T21:17:53.617Z,7.00
2019-03-23T21:19:55.817Z,6.90
2019-03-23T21:21:58.030Z,6.90
2019-03-23T21:24:00.259Z,6.90
2019-03-23T21:26:02.465Z,6.90
2019-03-23T21:28:04.690Z,6.80
2019-03-23T21:30:10.725Z,6.80
2019-03-23T21:32:13.021Z,6.80
2019-03-23T21:34:15.242Z,6.80
2019-03-23T21:36:17.441Z,6.80
2019-03-23T21:38:19.657Z,6.70
2019-03-23T21:40:21.864Z,6.60
2019-03-23T21:42:24.067Z,6.60
2019-03-23T21:44:30.918Z,6.50
2019-03-23T21:46:30.465Z,6.50
2019-03-23T21:48:33.009Z,6.50
2019-03-23T21:50:35.229Z,6.50
2019-03-23T21:52:37.445Z,6.40
2019-03-23T21:54:39.769Z,6.40
2019-03-23T21:56:41.998Z,6.30
2019-03-23T21:58:44.225Z,6.30
2019-03-23T22:00:46.453Z,6.30
2019-03-23T22:02:48.669Z,6.20
2019-03-23T22:04:51.178Z,6.20
2019-03-23T22:06:53.715Z,6.10
2019-03-23T22:08:55.954Z,6.10
2019-03-23T22:10:58.162Z,6.10
2019-03-23T22:13:00.401Z,6.20
2019-03-23T22:15:02.957Z,6.10
2019-03-23T22:17:05.977Z,6.10
2019-03-23T22:19:08.313Z,6.10
2019-03-23T22:21:10.534Z,6.00
2019-03-23T22:23:12.794Z,6.00
2019-03-23T22:25:15.006Z,6.00
2019-03-23T22:27:19.059Z,5.90
2019-03-23T22:29:21.349Z,5.80
2019-03-23T22:31:23.574Z,5.80
2019-03-23T22:33:25.794Z,5.80
2019-03-23T22:35:28.309Z,5.70
2019-03-23T22:37:30.523Z,5.70
2019-03-23T22:39:33.087Z,5.70
2019-03-23T22:41:35.297Z,5.60
2019-03-23T22:43:37.517Z,5.60
2019-03-23T22:45:39.738Z,5.50
2019-03-23T22:47:41.982Z,5.50
2019-03-23T22:49:44.206Z,5.40
2019-03-23T22:51:46.418Z,5.40
2019-03-23T22:53:48.817Z,5.40
2019-03-23T22:55:51.057Z,5.40
2019-03-23T22:57:55.549Z,5.40
2019-03-23T22:59:58.114Z,5.30
2019-03-23T23:02:00.395Z,5.30
2019-03-23T23:04:02.994Z,5.30
2019-03-23T23:06:05.209Z,5.30
2019-03-23T23:08:07.650Z,5.30
2019-03-23T23:10:09.878Z,5.30
2019-03-23T23:12:12.081Z,5.30
2019-03-23T23:14:14.305Z,5.20
2019-03-23T23:16:16.513Z,5.20
2019-03-23T23:18:18.727Z,5.20
2019-03-23T23:20:20.949Z,5.10
2019-03-23T23:22:23.498Z,5.10
2019-03-23T23:24:25.730Z,5.00
2019-03-23T23:26:27.941Z,4.90
2019-03-23T23:28:30.157Z,4.90
2019-03-23T23:30:32.376Z,4.70
2019-03-23T23:32:34.594Z,4.60
2019-03-23T23:34:37.093Z,4.70
2019-03-23T23:36:39.301Z,4.60
2019-03-23T23:38:41.525Z,4.50
2019-03-23T23:40:43.997Z,4.40
2019-03-23T23:42:46.213Z,4.40
2019-03-23T23:44:48.437Z,4.40
2019-03-23T23:46:50.664Z,4.40
2019-03-23T23:48:53.165Z,4.40
2019-03-23T23:50:55.385Z,4.40
2019-03-23T23:52:57.611Z,4.40
2019-03-23T23:54:59.836Z,4.50
2019-03-23T23:57:02.049Z,4.40
2019-03-23T23:59:04.285Z,4.40
